Time;durP1;ratioP1;P1;durP2;ratioP2;P2;SDS_P1;SDS_P2;PMS_P1;PMS_P2;Temp;Humidity;BMP_temperature;BMP_pressure;BME280_temperature;BME280_humidity;BME280_pressure;Samples;Min_cycle;Max_cycle;Signal;HPM_P1;HPM_P2
2021/05/20 00:00:17;;;;;;;19.42;11.65;;;;;;;10.55;66.40;98284.97;5071112;28;20028;-73
2021/05/20 00:02:43;;;;;;;20.90;10.45;;;;;;;10.53;66.47;98278.97;5067890;28;20036;-73
2021/05/20 00:05:11;;;;;;;24.08;11.55;;;;;;;10.52;66.66;98284.72;5069446;28;20082;-72
2021/05/20 00:07:36;;;;;;;22.77;11.13;;;;;;;10.51;66.42;98285.84;5070805;28;20021;-72
2021/05/20 00:10:04;;;;;;;26.23;11.95;;;;;;;10.50;66.89;98284.22;5070696;28;20398;-73
2021/05/20 00:12:30;;;;;;;23.90;11.90;;;;;;;10.51;67.24;98274.88;5070491;28;20032;-73
2021/05/20 00:14:55;;;;;;;22.15;10.88;;;;;;;10.49;66.37;98290.81;5070560;28;20024;-73
2021/05/20 00:17:20;;;;;;;20.85;11.02;;;;;;;10.47;66.76;98288.38;5070464;28;20028;-73
2021/05/20 00:19:46;;;;;;;22.77;12.20;;;;;;;10.43;66.28;98287.34;5070734;28;20056;-73
2021/05/20 00:22:11;;;;;;;25.63;12.00;;;;;;;10.42;66.37;98300.22;5068963;28;20032;-73
2021/05/20 00:24:37;;;;;;;24.35;11.45;;;;;;;10.41;66.62;98293.13;5070573;28;20024;-73
2021/05/20 00:27:02;;;;;;;22.70;9.63;;;;;;;10.42;66.60;98294.75;5070428;28;20115;-73
2021/05/20 00:29:28;;;;;;;22.98;11.02;;;;;;;10.41;67.12;98295.84;5069814;28;20036;-72
2021/05/20 00:31:53;;;;;;;22.00;10.52;;;;;;;10.40;66.74;98298.91;5070388;28;20019;-73
2021/05/20 00:34:18;;;;;;;23.88;11.10;;;;;;;10.34;66.55;98300.91;5070160;28;20063;-73
2021/05/20 00:36:44;;;;;;;25.77;12.20;;;;;;;10.32;66.46;98303.13;5070376;28;20024;-72
2021/05/20 00:39:09;;;;;;;26.27;13.40;;;;;;;10.32;66.88;98300.38;5070139;28;20025;-73
2021/05/20 00:41:34;;;;;;;24.02;12.70;;;;;;;10.30;66.47;98305.34;5069932;28;20024;-73
2021/05/20 00:44:00;;;;;;;23.65;12.85;;;;;;;10.26;66.58;98304.31;5068701;28;20024;-73
2021/05/20 00:46:25;;;;;;;28.05;12.45;;;;;;;10.24;66.33;98307.34;5069864;28;20012;-72
2021/05/20 00:48:51;;;;;;;24.70;12.93;;;;;;;10.21;66.88;98312.59;5069676;28;20020;-72
2021/05/20 00:51:16;;;;;;;27.88;12.50;;;;;;;10.16;66.70;98309.94;5067897;28;20024;-73
2021/05/20 00:53:42;;;;;;;23.15;11.98;;;;;;;10.11;67.21;98305.38;5069942;28;20069;-73
2021/05/20 00:56:10;;;;;;;27.38;12.70;;;;;;;10.08;66.93;98314.19;5069962;28;20021;-73
2021/05/20 00:58:35;;;;;;;28.20;12.90;;;;;;;10.04;67.21;98313.94;5067615;28;20047;-72
2021/05/20 01:01:02;;;;;;;24.55;12.73;;;;;;;10.02;67.63;98301.66;5069694;28;20481;-72
2021/05/20 01:03:27;;;;;;;28.55;13.73;;;;;;;10.01;66.96;98308.25;5069756;28;20120;-73
2021/05/20 01:05:54;;;;;;;24.83;12.63;;;;;;;9.99;67.04;98314.00;5070047;28;20572;-72
2021/05/20 01:08:25;;;;;;;27.23;14.35;;;;;;;10.00;67.36;98309.34;5065840;28;20024;-73
2021/05/20 01:10:51;;;;;;;26.40;12.90;;;;;;;10.00;67.84;98317.56;5069597;28;20016;-72
2021/05/20 01:13:17;;;;;;;26.63;13.32;;;;;;;9.98;67.44;98317.88;5069766;28;20090;-73
2021/05/20 01:15:42;;;;;;;26.23;13.27;;;;;;;9.91;67.38;98312.75;5069835;28;20497;-74
2021/05/20 01:18:08;;;;;;;28.65;14.68;;;;;;;9.91;67.58;98310.00;5069466;28;20114;-73
2021/05/20 01:20:39;;;;;;;26.65;13.77;;;;;;;9.90;67.57;98318.53;5069380;28;20505;-73
2021/05/20 01:23:05;;;;;;;30.95;13.68;;;;;;;9.89;67.74;98320.44;5069678;28;20096;-73
2021/05/20 01:25:32;;;;;;;26.85;13.13;;;;;;;9.86;67.92;98320.25;5069565;28;20534;-72
2021/05/20 01:28:04;;;;;;;27.77;13.23;;;;;;;9.82;67.94;98317.25;5069577;28;20046;-73
2021/05/20 01:30:33;;;;;;;29.45;13.90;;;;;;;9.80;67.82;98323.03;5069304;28;20466;-72
2021/05/20 01:32:59;;;;;;;25.60;12.27;;;;;;;9.82;67.60;98328.22;5068234;28;20070;-72
2021/05/20 01:35:24;;;;;;;27.90;14.27;;;;;;;9.83;68.24;98322.47;5069434;28;20017;-72
2021/05/20 01:37:50;;;;;;;27.48;14.07;;;;;;;9.83;68.22;98329.84;5069511;28;20490;-72
2021/05/20 01:40:16;;;;;;;27.17;12.85;;;;;;;9.86;68.27;98326.53;5069938;28;20020;-73
2021/05/20 01:42:41;;;;;;;29.85;13.35;;;;;;;9.86;67.87;98332.00;5073889;28;20459;-72
2021/05/20 01:45:08;;;;;;;26.48;12.02;;;;;;;9.85;68.03;98329.56;5074147;28;20039;-72
2021/05/20 01:47:35;;;;;;;28.50;14.07;;;;;;;9.79;67.93;98326.06;5073677;28;20020;-73
2021/05/20 01:50:01;;;;;;;24.58;14.02;;;;;;;9.76;68.30;98324.75;5073216;28;20036;-73
2021/05/20 01:52:26;;;;;;;25.33;13.52;;;;;;;9.73;68.12;98325.31;5073546;28;20025;-72
2021/05/20 01:54:51;;;;;;;30.35;15.45;;;;;;;9.73;67.79;98325.31;5073263;28;20427;-73
2021/05/20 01:57:17;;;;;;;27.60;12.80;;;;;;;9.73;68.01;98333.53;5069073;28;20032;-73
2021/05/20 01:59:42;;;;;;;30.75;15.40;;;;;;;9.71;68.20;98330.28;5072214;28;20027;-73
2021/05/20 02:02:08;;;;;;;33.92;15.80;;;;;;;9.68;67.82;98331.69;5073139;28;20057;-72
2021/05/20 02:04:33;;;;;;;28.20;14.38;;;;;;;9.68;67.89;98323.47;5072983;28;20043;-72
2021/05/20 02:06:59;;;;;;;30.23;14.27;;;;;;;9.68;68.24;98325.38;5072819;28;20059;-72
2021/05/20 02:09:24;;;;;;;26.92;13.40;;;;;;;9.66;68.60;98325.69;5073385;28;20059;-73
2021/05/20 02:11:50;;;;;;;29.08;13.93;;;;;;;9.65;67.66;98334.19;5072703;28;20032;-72
2021/05/20 02:14:15;;;;;;;26.25;13.57;;;;;;;9.65;67.74;98331.44;5072995;28;20541;-72
2021/05/20 02:16:41;;;;;;;25.73;13.60;;;;;;;9.64;67.61;98336.13;5073086;28;20020;-72
2021/05/20 02:19:06;;;;;;;28.48;13.82;;;;;;;9.63;67.95;98341.88;5073166;28;20059;-73
2021/05/20 02:21:31;;;;;;;28.02;13.60;;;;;;;9.63;68.27;98339.97;5072183;28;20026;-71
2021/05/20 02:23:57;;;;;;;25.48;12.38;;;;;;;9.62;68.10;98340.25;5073051;28;20033;-71
2021/05/20 02:26:22;;;;;;;27.25;13.15;;;;;;;9.61;68.08;98342.19;5072927;28;20099;-72
2021/05/20 02:28:48;;;;;;;24.85;12.63;;;;;;;9.62;68.03;98343.81;5072943;28;20032;-71
2021/05/20 02:31:13;;;;;;;23.52;12.57;;;;;;;9.61;67.62;98338.63;5073057;28;20020;-73
2021/05/20 02:33:38;;;;;;;22.17;12.40;;;;;;;9.59;68.00;98340.81;5072782;28;20028;-72
2021/05/20 02:36:04;;;;;;;25.45;12.13;;;;;;;9.57;68.28;98337.59;5072710;28;20029;-73
2021/05/20 02:38:29;;;;;;;23.90;12.30;;;;;;;9.59;68.39;98335.34;5073044;28;20111;-74
2021/05/20 02:40:55;;;;;;;25.25;13.40;;;;;;;9.61;68.76;98338.63;5071190;28;20462;-73
2021/05/20 02:43:20;;;;;;;20.77;11.15;;;;;;;9.62;68.37;98349.28;5072818;28;20172;-72
2021/05/20 02:45:45;;;;;;;24.35;11.60;;;;;;;9.62;67.75;98346.56;5072924;28;20423;-73
2021/05/20 02:48:11;;;;;;;22.88;12.10;;;;;;;9.60;68.24;98345.19;5070469;28;21891;-73
2021/05/20 02:50:36;;;;;;;20.90;11.25;;;;;;;9.62;68.48;98342.97;5070193;28;20028;-73
2021/05/20 02:53:01;;;;;;;22.83;12.52;;;;;;;9.63;68.25;98344.63;5072842;28;20053;-73
2021/05/20 02:55:27;;;;;;;20.73;11.63;;;;;;;9.63;68.00;98344.63;5072988;28;20021;-73
2021/05/20 02:57:59;;;;;;;22.88;12.57;;;;;;;9.62;67.76;98341.06;5071351;28;20074;-72
2021/05/20 03:00:32;;;;;;;22.02;11.90;;;;;;;9.64;68.13;98348.97;5071605;28;20020;-73
2021/05/20 03:03:00;;;;;;;25.10;12.63;;;;;;;9.66;67.85;98350.34;5070174;28;20116;-73
2021/05/20 03:05:25;;;;;;;24.83;12.98;;;;;;;9.65;67.80;98359.66;5075950;28;20025;-72
2021/05/20 03:07:54;;;;;;;26.30;12.93;;;;;;;9.67;67.91;98354.72;5074306;28;20028;-73
2021/05/20 03:10:20;;;;;;;24.08;12.57;;;;;;;9.66;68.26;98352.25;5071112;28;20527;-73
2021/05/20 03:12:45;;;;;;;23.08;12.05;;;;;;;9.63;68.41;98359.13;5072344;28;20025;-71
2021/05/20 03:15:11;;;;;;;26.15;12.38;;;;;;;9.63;67.64;98358.31;5073340;28;20399;-72
2021/05/20 03:17:36;;;;;;;21.88;13.10;;;;;;;9.65;68.21;98359.66;5070413;28;20101;-72
2021/05/20 03:20:03;;;;;;;24.65;12.38;;;;;;;9.70;68.26;98360.72;5073882;28;20112;-72
2021/05/20 03:22:29;;;;;;;29.67;12.88;;;;;;;9.72;68.34;98374.94;5069001;28;20502;-72
2021/05/20 03:24:54;;;;;;;21.00;11.45;;;;;;;9.74;67.47;98362.56;5073739;28;20056;-73
2021/05/20 03:27:20;;;;;;;24.25;12.38;;;;;;;9.75;67.69;98364.19;5074613;28;20037;-73
2021/05/20 03:29:45;;;;;;;25.88;13.43;;;;;;;9.77;68.01;98356.50;5074184;28;20390;-72
2021/05/20 03:32:11;;;;;;;25.48;13.55;;;;;;;9.76;67.90;98368.56;5082344;28;20035;-73
2021/05/20 03:34:36;;;;;;;29.70;14.35;;;;;;;9.79;67.72;98376.19;5094060;28;20474;-73
2021/05/20 03:37:03;;;;;;;26.77;14.15;;;;;;;9.77;67.65;98372.13;5094136;28;20367;-73
2021/05/20 03:39:30;;;;;;;27.85;13.80;;;;;;;9.76;67.66;98365.03;5094077;28;20035;-72
2021/05/20 03:41:55;;;;;;;31.05;15.65;;;;;;;9.78;67.53;98363.59;5092638;28;20173;-73
2021/05/20 03:44:21;;;;;;;37.38;16.30;;;;;;;9.78;67.97;98371.03;5094469;28;20481;-73
2021/05/20 03:46:47;;;;;;;34.78;16.45;;;;;;;9.79;67.66;98375.38;5089232;28;20044;-73
2021/05/20 03:49:13;;;;;;;36.60;17.17;;;;;;;9.72;67.43;98378.47;5093616;28;20042;-74
2021/05/20 03:51:39;;;;;;;28.85;15.45;;;;;;;9.73;67.66;98379.28;5089741;28;20033;-73
2021/05/20 03:54:04;;;;;;;31.70;16.13;;;;;;;9.68;68.24;98388.38;5073986;28;20455;-73
2021/05/20 03:56:30;;;;;;;30.13;15.35;;;;;;;9.62;67.96;98378.56;5073059;28;20041;-73
2021/05/20 03:58:55;;;;;;;33.80;17.63;;;;;;;9.61;68.41;98388.72;5074004;28;20036;-73
2021/05/20 04:01:20;;;;;;;33.40;16.42;;;;;;;9.63;68.27;98378.31;5074575;28;20107;-72
2021/05/20 04:03:46;;;;;;;34.65;16.95;;;;;;;9.62;68.74;98384.06;5055603;28;20125;-73
2021/05/20 04:06:11;;;;;;;35.58;16.67;;;;;;;9.61;68.08;98387.91;5072097;28;20024;-72
2021/05/20 04:08:37;;;;;;;33.38;16.80;;;;;;;9.58;68.50;98383.03;5073717;28;20024;-73
2021/05/20 04:11:03;;;;;;;33.20;16.58;;;;;;;9.58;68.50;98392.06;5073812;28;20385;-74
2021/05/20 04:13:40;;;;;;;28.48;15.77;;;;;;;9.60;69.30;98391.75;5072466;28;20108;-73
2021/05/20 04:16:07;;;;;;;37.75;17.58;;;;;;;9.62;68.90;98393.09;5073611;28;20053;-73
2021/05/20 04:18:33;;;;;;;32.95;16.08;;;;;;;9.64;69.46;98403.75;5088932;28;20024;-73
2021/05/20 04:20:59;;;;;;;32.63;16.95;;;;;;;9.61;69.04;98398.84;5091569;28;20026;-73
2021/05/20 04:23:25;;;;;;;34.00;16.40;;;;;;;9.60;69.01;98408.19;5093432;28;20082;-73
2021/05/20 04:25:52;;;;;;;36.38;17.05;;;;;;;9.60;69.10;98411.75;5093680;28;20028;-73
2021/05/20 04:28:19;;;;;;;33.85;17.77;;;;;;;9.60;69.18;98410.91;5093413;28;20031;-73
2021/05/20 04:30:45;;;;;;;36.67;17.80;;;;;;;9.63;69.21;98419.38;5091782;28;20073;-73
2021/05/20 04:33:11;;;;;;;33.33;17.60;;;;;;;9.68;69.11;98422.06;5057337;28;20028;-73
2021/05/20 04:35:36;;;;;;;28.63;14.20;;;;;;;9.68;70.38;98424.81;5058638;28;20020;-72
2021/05/20 04:38:06;;;;;;;30.48;15.25;;;;;;;9.69;70.16;98422.88;5073538;28;20052;-72
2021/05/20 04:40:33;;;;;;;32.40;16.48;;;;;;;9.68;70.08;98426.72;5074878;28;20103;-72
2021/05/20 04:42:59;;;;;;;31.13;15.70;;;;;;;9.72;69.57;98425.03;5073379;28;20028;-73
2021/05/20 04:45:24;;;;;;;31.08;16.85;;;;;;;9.78;70.10;98425.81;5073283;28;20043;-73
2021/05/20 04:47:50;;;;;;;38.08;16.63;;;;;;;9.77;69.17;98427.72;5073486;28;20543;-72
2021/05/20 04:50:17;;;;;;;33.92;16.23;;;;;;;9.83;70.06;98431.19;5072852;28;20028;-72
2021/05/20 04:52:44;;;;;;;35.70;15.32;;;;;;;9.85;69.98;98442.66;5074228;28;20036;-73
2021/05/20 04:55:11;;;;;;;33.40;17.08;;;;;;;9.82;69.90;98435.03;5073087;28;20024;-72
2021/05/20 04:57:36;;;;;;;33.47;16.10;;;;;;;9.87;69.33;98436.91;5073140;28;20028;-73
2021/05/20 05:00:06;;;;;;;27.10;14.57;;;;;;;9.92;70.23;98443.13;5073844;28;20024;-72
2021/05/20 05:02:32;;;;;;;32.90;16.25;;;;;;;9.91;69.38;98444.25;5079335;28;20044;-73
2021/05/20 05:04:57;;;;;;;40.15;16.92;;;;;;;9.96;69.52;98443.38;5093264;28;20020;-73
2021/05/20 05:07:23;;;;;;;28.42;15.13;;;;;;;10.02;69.60;98444.13;5092486;28;20111;-73
2021/05/20 05:09:48;;;;;;;33.38;17.00;;;;;;;10.07;69.84;98444.06;5086981;28;20026;-73
2021/05/20 05:12:14;;;;;;;24.27;12.30;;;;;;;10.10;70.39;98443.50;5073448;28;20024;-73
2021/05/20 05:14:39;;;;;;;26.33;12.75;;;;;;;10.11;69.83;98447.88;5088263;28;20237;-72
2021/05/20 05:17:05;;;;;;;29.48;15.27;;;;;;;10.12;69.56;98453.03;5081229;28;20106;-73
2021/05/20 05:19:30;;;;;;;29.67;15.70;;;;;;;10.17;69.86;98452.19;5076998;28;20027;-73
2021/05/20 05:21:59;;;;;;;29.30;14.45;;;;;;;10.20;69.50;98454.31;5089647;28;20058;-73
2021/05/20 05:24:25;;;;;;;25.55;13.77;;;;;;;10.25;69.62;98454.22;5092616;28;20074;-73
2021/05/20 05:26:50;;;;;;;27.27;14.82;;;;;;;10.32;69.63;98447.56;5090840;28;20080;-74
2021/05/20 05:29:16;;;;;;;33.17;15.73;;;;;;;10.39;68.85;98454.34;5067890;28;20120;-73
2021/05/20 05:31:41;;;;;;;26.98;14.43;;;;;;;10.47;69.29;98454.81;5074558;28;20027;-73
2021/05/20 05:34:07;;;;;;;28.30;13.68;;;;;;;10.55;69.61;98454.16;5071006;28;20528;-73
2021/05/20 05:36:32;;;;;;;24.55;13.05;;;;;;;10.58;69.14;98459.03;5073475;28;20027;-73
2021/05/20 05:38:58;;;;;;;25.80;13.48;;;;;;;10.66;69.70;98461.13;5066801;28;20032;-73
2021/05/20 05:41:24;;;;;;;24.92;11.93;;;;;;;10.68;69.57;98452.59;5052177;28;20027;-73
2021/05/20 05:43:49;;;;;;;26.58;11.88;;;;;;;10.71;68.59;98458.31;5052377;28;20462;-72
2021/05/20 05:46:14;;;;;;;26.38;14.52;;;;;;;10.74;68.86;98461.56;5060362;28;20032;-73
2021/05/20 05:48:40;;;;;;;23.75;12.30;;;;;;;10.77;68.84;98458.25;5076145;28;20024;-73
2021/05/20 05:51:10;;;;;;;24.70;12.48;;;;;;;10.80;68.70;98455.69;5072024;28;20104;-73
2021/05/20 05:53:36;;;;;;;25.15;12.50;;;;;;;10.78;68.32;98455.19;5092730;28;20036;-73
2021/05/20 05:56:02;;;;;;;27.45;13.18;;;;;;;10.80;68.38;98460.38;5091101;28;20120;-73
2021/05/20 05:58:27;;;;;;;20.75;11.85;;;;;;;10.85;69.24;98460.28;5066244;28;20036;-72
2021/05/20 06:00:52;;;;;;;24.98;13.38;;;;;;;10.86;68.75;98451.78;5085457;28;20043;-73
2021/05/20 06:03:18;;;;;;;23.35;13.13;;;;;;;10.93;68.60;98461.56;5080218;28;20498;-73
2021/05/20 06:05:47;;;;;;;25.90;12.68;;;;;;;10.94;68.83;98455.75;5092217;28;20032;-73
2021/05/20 06:08:12;;;;;;;24.58;13.52;;;;;;;10.99;68.84;98460.38;5078771;28;20470;-72
2021/05/20 06:10:38;;;;;;;22.45;11.95;;;;;;;11.01;68.70;98458.94;5071745;28;20070;-73
2021/05/20 06:13:03;;;;;;;25.05;12.63;;;;;;;11.07;68.47;98456.13;5081824;28;20028;-74
2021/05/20 06:15:28;;;;;;;22.92;11.38;;;;;;;11.14;68.74;98460.09;5092100;28;20088;-73
2021/05/20 06:17:54;;;;;;;22.98;11.57;;;;;;;11.21;68.33;98456.16;5074047;28;20372;-74
2021/05/20 06:20:19;;;;;;;24.08;11.80;;;;;;;11.27;68.35;98464.00;5071830;28;20063;-73
2021/05/20 06:22:46;;;;;;;22.20;11.57;;;;;;;11.32;68.04;98461.16;5064696;28;20017;-74
2021/05/20 06:25:12;;;;;;;22.75;11.88;;;;;;;11.40;68.16;98462.44;5051783;28;20047;-73
2021/05/20 06:27:37;;;;;;;17.42;10.18;;;;;;;11.44;67.84;98468.91;5054797;28;20021;-73
2021/05/20 06:30:03;;;;;;;18.27;9.98;;;;;;;11.48;67.55;98466.41;5058923;28;20379;-74
2021/05/20 06:32:28;;;;;;;14.20;7.88;;;;;;;11.53;67.52;98460.81;5066325;28;20031;-73
2021/05/20 06:34:54;;;;;;;20.27;10.70;;;;;;;11.60;67.63;98469.47;5066455;28;20032;-74
2021/05/20 06:37:19;;;;;;;14.95;8.25;;;;;;;11.71;67.96;98461.03;5066239;28;20032;-73
2021/05/20 06:39:45;;;;;;;17.42;9.93;;;;;;;11.79;67.07;98459.53;5066833;28;20056;-73
2021/05/20 06:42:11;;;;;;;15.68;8.13;;;;;;;11.87;67.03;98464.28;5066149;28;20025;-73
2021/05/20 06:44:38;;;;;;;15.82;7.97;;;;;;;11.98;66.82;98473.19;5066236;28;20111;-73
2021/05/20 06:47:04;;;;;;;17.48;7.15;;;;;;;12.07;66.49;98474.09;5063838;28;20029;-73
2021/05/20 06:49:30;;;;;;;11.55;6.90;;;;;;;12.14;65.89;98471.75;5066183;28;20484;-73
2021/05/20 06:51:56;;;;;;;8.55;5.38;;;;;;;12.24;65.49;98469.94;5066367;28;20020;-73
2021/05/20 06:54:21;;;;;;;10.20;6.13;;;;;;;12.31;64.89;98473.88;5064403;28;20040;-73
2021/05/20 06:56:52;;;;;;;12.23;8.13;;;;;;;12.40;64.44;98482.25;5063376;28;20044;-73
2021/05/20 07:02:01;;;;;;;12.32;6.75;;;;;;;12.50;63.34;98476.50;5064154;28;20056;-74
2021/05/20 07:04:26;;;;;;;9.90;5.32;;;;;;;12.56;63.20;98470.88;5066612;28;20784;-74
2021/05/20 07:06:52;;;;;;;11.63;6.15;;;;;;;12.65;62.79;98477.28;5065081;28;20039;-74
2021/05/20 07:09:17;;;;;;;11.48;6.15;;;;;;;12.74;62.72;98477.38;5066276;28;20041;-73
2021/05/20 07:11:43;;;;;;;12.02;6.13;;;;;;;12.86;62.51;98482.31;5066026;28;20032;-74
2021/05/20 07:14:09;;;;;;;10.68;5.60;;;;;;;12.92;62.48;98479.16;5065278;28;20033;-74
2021/05/20 07:16:35;;;;;;;10.52;5.57;;;;;;;12.97;62.16;98477.41;5066053;28;20025;-74
2021/05/20 07:19:00;;;;;;;11.70;5.60;;;;;;;13.01;60.98;98475.66;5065312;28;20509;-73
2021/05/20 07:21:25;;;;;;;9.70;5.13;;;;;;;13.06;61.60;98492.03;5065799;28;20024;-74
2021/05/20 07:23:51;;;;;;;12.60;5.95;;;;;;;13.08;61.40;98487.03;5065308;28;20032;-74
2021/05/20 07:26:17;;;;;;;13.40;5.90;;;;;;;13.10;60.77;98482.03;5061272;28;20063;-73
2021/05/20 07:28:42;;;;;;;9.40;5.70;;;;;;;13.12;60.82;98477.03;5061847;28;20462;-73
2021/05/20 07:31:07;;;;;;;9.45;5.07;;;;;;;13.20;60.56;98475.47;5062481;28;20028;-72
2021/05/20 07:33:34;;;;;;;8.38;4.85;;;;;;;13.32;60.10;98478.47;5064267;28;20104;-73
2021/05/20 07:35:59;;;;;;;9.50;5.22;;;;;;;13.42;59.78;98485.72;5064302;28;20054;-76
2021/05/20 07:38:26;;;;;;;10.20;5.20;;;;;;;13.49;59.27;98494.31;5062224;28;20040;-75
2021/05/20 07:40:51;;;;;;;8.05;4.32;;;;;;;13.52;59.23;98490.13;5063963;28;20520;-75
2021/05/20 07:43:16;;;;;;;7.32;4.80;;;;;;;13.55;56.94;98497.78;5064947;28;20487;-75
2021/05/20 07:45:42;;;;;;;10.55;4.93;;;;;;;13.45;57.41;98496.06;5064847;28;20038;-76
2021/05/20 07:48:08;;;;;;;7.40;4.20;;;;;;;13.38;56.96;98490.97;5062100;28;20115;-75
2021/05/20 07:50:33;;;;;;;12.05;4.95;;;;;;;13.34;57.67;98495.50;5062000;28;20036;-76
2021/05/20 07:52:58;;;;;;;10.65;5.75;;;;;;;13.33;56.93;98493.84;5062176;28;20103;-75
2021/05/20 07:55:24;;;;;;;8.93;4.90;;;;;;;13.27;57.32;98497.88;5062439;28;20410;-74
2021/05/20 07:57:53;;;;;;;8.73;4.65;;;;;;;13.23;56.41;98497.69;5059106;28;20036;-76
2021/05/20 08:00:19;;;;;;;6.35;4.72;;;;;;;13.20;56.96;98489.25;5064872;28;20032;-74
2021/05/20 08:05:14;;;;;;;8.85;5.35;;;;;;;13.19;56.21;98491.19;5064491;28;20406;-74
2021/05/20 08:07:59;;;;;;;11.90;5.30;;;;;;;13.16;57.09;98485.50;5062429;28;20024;-77
2021/05/20 08:10:40;;;;;;;8.48;4.22;;;;;;;13.16;56.31;98489.03;5064753;28;20059;-75
2021/05/20 08:13:06;;;;;;;8.13;4.13;;;;;;;13.22;56.45;98487.00;5062238;28;20024;-76
2021/05/20 08:15:31;;;;;;;9.88;5.07;;;;;;;13.32;55.71;98492.22;5062503;28;20032;-75
2021/05/20 08:17:57;;;;;;;10.00;4.45;;;;;;;13.39;55.87;98489.84;5062736;28;20056;-73
2021/05/20 08:20:23;;;;;;;13.55;6.32;;;;;;;13.46;56.58;98485.88;5061643;28;20556;-75
2021/05/20 08:22:48;;;;;;;10.13;4.53;;;;;;;13.62;57.04;98483.53;5064229;28;20040;-77
2021/05/20 08:25:14;;;;;;;9.75;4.75;;;;;;;13.76;57.32;98478.75;5060692;28;20028;-75
2021/05/20 08:27:39;;;;;;;9.05;4.80;;;;;;;13.93;56.86;98483.53;5062741;28;20020;-76
2021/05/20 08:30:07;;;;;;;9.25;3.75;;;;;;;14.09;55.85;98483.91;5065487;28;20035;-75
2021/05/20 08:32:32;;;;;;;10.77;5.35;;;;;;;14.21;55.52;98485.25;5062693;28;20032;-75
2021/05/20 08:34:58;;;;;;;8.52;3.88;;;;;;;14.36;54.45;98490.31;5064172;28;20020;-79
2021/05/20 08:37:23;;;;;;;5.88;3.30;;;;;;;14.48;54.80;98486.13;5062451;28;20044;-80
2021/05/20 08:39:49;;;;;;;11.32;4.65;;;;;;;14.58;55.35;98491.34;5063506;28;20036;-76
2021/05/20 08:42:14;;;;;;;5.50;3.60;;;;;;;14.72;54.90;98497.53;5061575;28;20762;-75
2021/05/20 08:44:40;;;;;;;7.50;3.55;;;;;;;14.74;53.91;98498.03;5061900;28;20040;-75
2021/05/20 08:47:05;;;;;;;6.22;2.85;;;;;;;14.72;52.84;98500.31;5061923;28;20024;-74
2021/05/20 08:49:30;;;;;;;6.03;3.00;;;;;;;14.72;53.11;98496.75;5061482;28;20024;-75
2021/05/20 08:51:56;;;;;;;7.10;2.88;;;;;;;14.80;52.23;98500.66;5061580;28;20024;-74
2021/05/20 08:54:21;;;;;;;5.13;3.10;;;;;;;14.84;50.75;98494.16;5063051;28;20032;-76
2021/05/20 08:56:52;;;;;;;5.30;3.03;;;;;;;14.85;50.85;98501.31;5061121;28;20134;-73
2021/05/20 08:59:18;;;;;;;7.45;3.08;;;;;;;14.87;51.66;98490.75;5062657;28;20033;-76
2021/05/20 09:01:44;;;;;;;7.32;3.35;;;;;;;14.88;50.72;98505.38;5062695;28;20535;-75
2021/05/20 09:04:10;;;;;;;4.75;2.78;;;;;;;14.85;49.99;98497.72;5057606;28;20032;-74
2021/05/20 09:06:53;;;;;;;3.88;2.63;;;;;;;14.87;50.46;98503.75;5061687;28;20706;-75
2021/05/20 09:09:28;;;;;;;6.13;3.05;;;;;;;14.88;49.20;98508.13;5060970;28;20353;-73
2021/05/20 09:11:58;;;;;;;5.20;2.60;;;;;;;14.91;49.27;98503.91;5064013;28;20379;-73
2021/05/20 09:14:35;;;;;;;4.45;2.50;;;;;;;14.94;48.19;98506.00;5062395;28;20032;-74
2021/05/20 09:17:14;;;;;;;4.60;2.30;;;;;;;14.98;49.01;98498.72;5063078;28;20358;-73
2021/05/20 09:19:41;;;;;;;;;;;;;;;15.04;49.58;98505.69;5063626;28;20119;-75
2021/05/20 09:22:09;;;;;;;8.13;2.28;;;;;;;15.09;47.13;98490.91;5063694;28;19924;-75
2021/05/20 09:24:45;;;;;;;5.70;3.03;;;;;;;15.16;47.88;98491.22;5063739;28;20463;-75
2021/05/20 09:27:34;;;;;;;4.70;2.35;;;;;;;15.26;48.53;98501.16;5061877;28;20474;-74
2021/05/20 09:30:26;;;;;;;8.13;2.50;;;;;;;15.35;48.50;98504.69;5057219;28;20071;-77
2021/05/20 09:32:57;;;;;;;6.28;2.95;;;;;;;15.48;48.77;98503.72;5062536;28;20025;-75
2021/05/20 09:35:28;;;;;;;3.35;2.38;;;;;;;15.56;46.84;98501.25;5063203;28;20183;-75
2021/05/20 09:38:18;;;;;;;3.65;2.50;;;;;;;15.53;48.39;98505.47;5061343;28;21431;-75
2021/05/20 09:40:55;;;;;;;7.43;3.17;;;;;;;15.55;48.29;98499.63;5062682;28;20039;-78
2021/05/20 09:43:32;;;;;;;2.95;2.28;;;;;;;15.57;46.78;98502.88;5059815;28;20036;-75
2021/05/20 09:45:59;;;;;;;6.50;2.58;;;;;;;15.57;47.37;98508.41;5057836;28;20021;-75
2021/05/20 09:48:34;;;;;;;7.00;2.60;;;;;;;15.63;45.97;98496.06;5061949;28;20043;-74
2021/05/20 09:51:00;;;;;;;4.13;2.45;;;;;;;15.65;46.90;98499.31;5062897;28;20027;-74
2021/05/20 09:53:28;;;;;;;4.80;2.60;;;;;;;15.73;45.39;98501.19;5062704;28;20497;-75
2021/05/20 09:55:58;;;;;;;5.72;2.47;;;;;;;15.77;46.31;98499.41;5061386;28;20078;-76
2021/05/20 09:58:28;;;;;;;7.70;2.80;;;;;;;15.85;46.26;98499.72;5060203;28;20075;-75
2021/05/20 10:00:54;;;;;;;3.67;2.28;;;;;;;15.88;45.10;98505.44;5064649;28;20048;-75
2021/05/20 10:03:21;;;;;;;3.95;2.30;;;;;;;15.86;44.17;98506.88;5066765;28;20129;-75
2021/05/20 10:05:48;;;;;;;5.53;2.03;;;;;;;15.78;43.31;98505.75;5067689;28;20118;-76
2021/05/20 10:08:16;;;;;;;4.38;2.05;;;;;;;15.72;43.51;98509.84;5066696;28;20032;-77
2021/05/20 10:10:47;;;;;;;9.02;2.88;;;;;;;15.74;42.88;98505.59;5066030;28;20025;-77
2021/05/20 10:13:18;;;;;;;3.38;2.00;;;;;;;15.75;43.68;98501.69;5066949;28;20029;-76
2021/05/20 10:15:44;;;;;;;4.32;1.92;;;;;;;15.81;43.77;98501.50;5067205;28;20664;-76
2021/05/20 10:18:13;;;;;;;2.58;2.00;;;;;;;15.80;41.78;98499.88;5064970;28;20103;-75
2021/05/20 10:20:41;;;;;;;2.80;1.70;;;;;;;15.74;40.56;98508.34;5066224;28;20024;-76
2021/05/20 10:23:15;;;;;;;1.83;1.38;;;;;;;15.72;42.17;98510.63;5065963;28;20037;-76
2021/05/20 10:25:42;;;;;;;2.15;1.52;;;;;;;15.74;40.80;98507.56;5065775;28;20074;-75
2021/05/20 10:28:09;;;;;;;1.75;1.50;;;;;;;15.69;40.29;98503.00;5065673;28;20082;-76
2021/05/20 10:30:37;;;;;;;4.82;2.63;;;;;;;15.65;40.36;98502.06;5063660;28;20025;-75
2021/05/20 10:33:03;;;;;;;7.40;2.53;;;;;;;15.61;40.31;98495.56;5065824;28;20058;-77
2021/05/20 10:35:45;;;;;;;2.17;1.67;;;;;;;15.67;40.72;98494.25;5067298;28;20086;-75
2021/05/20 10:38:13;;;;;;;4.38;1.90;;;;;;;15.71;40.63;98489.66;5063476;28;20041;-77
2021/05/20 10:40:38;;;;;;;6.35;1.85;;;;;;;15.74;40.90;98499.28;5064979;28;20028;-77
2021/05/20 10:43:12;;;;;;;6.95;2.05;;;;;;;15.77;41.35;98493.88;5065002;28;20032;-76
2021/05/20 10:45:40;;;;;;;4.82;1.90;;;;;;;15.84;41.75;98492.56;5062355;28;20036;-77
2021/05/20 10:48:07;;;;;;;4.57;1.85;;;;;;;15.91;40.99;98503.97;5064521;28;20025;-76
2021/05/20 10:50:51;;;;;;;5.20;2.20;;;;;;;15.96;41.85;98491.88;5065152;28;20032;-76
2021/05/20 10:53:49;;;;;;;17.05;6.38;;;;;;;15.98;41.71;98487.66;5058444;28;20037;-78
2021/05/20 10:56:14;;;;;;;2.97;1.88;;;;;;;16.01;40.31;98500.00;5053371;28;20959;-79
2021/05/20 10:58:41;;;;;;;4.60;2.08;;;;;;;15.99;40.73;98496.75;5064872;28;20107;-76
2021/05/20 11:01:30;;;;;;;3.17;1.60;;;;;;;16.07;41.33;98487.63;5065583;28;20154;-76
2021/05/20 11:04:05;;;;;;;5.15;2.45;;;;;;;16.18;41.21;98486.13;5065321;28;20044;-77
2021/05/20 11:06:37;;;;;;;5.93;2.22;;;;;;;16.26;42.58;98484.44;5067216;28;20486;-77
2021/05/20 11:09:10;;;;;;;6.90;1.98;;;;;;;16.35;41.87;98487.16;5065394;28;20104;-77
2021/05/20 11:11:38;;;;;;;4.35;2.10;;;;;;;16.34;41.58;98483.59;5064216;28;20093;-77
2021/05/20 11:14:14;;;;;;;4.13;2.08;;;;;;;16.32;41.60;98483.09;5063778;28;20363;-75
2021/05/20 11:16:39;;;;;;;2.75;2.00;;;;;;;16.34;40.33;98475.28;5063824;28;20024;-76
2021/05/20 11:19:18;;;;;;;5.68;2.95;;;;;;;16.35;41.56;98484.38;5065609;28;20044;-76
2021/05/20 11:21:55;;;;;;;3.53;2.70;;;;;;;16.45;42.17;98472.94;5064618;28;20111;-77
2021/05/20 11:24:26;;;;;;;4.35;1.95;;;;;;;16.51;40.70;98462.47;5064600;28;20033;-77
2021/05/20 11:26:55;;;;;;;3.28;2.30;;;;;;;16.55;39.32;98474.50;5064914;28;20040;-76
2021/05/20 11:29:27;;;;;;;3.40;2.10;;;;;;;16.60;40.42;98468.75;5066265;28;20040;-76
2021/05/20 11:32:03;;;;;;;4.00;1.70;;;;;;;16.65;40.27;98471.34;5066143;28;20491;-75